Superferry II — SWKV — position and weather

sailwx.info

Track history (hours):
 
Tides and Currents Weather Stations Pressure Air Temp Water Temp Dewpoint Dewpoint Depression Visibility Wind Speed Wind Dir Waves Ship Positions

Superferry II

Last reported at 2018-Feb-20 17:00 UTC. Time now 2018-Feb-20 21:50 UTC.
Position N 38°01' E 024°01'.

Length 122 m; draft 4.7 m.

Type: Passenger vessel. MMSI: 237001000.

Date/timePositionNaut miles runAvg speedWind from/ knotsBaromVisibWave heightAir tempDewpointWater temp
2018-Feb-20 17:00N 38°01' E 024°01'4313.2
2018-Feb-20 13:44N 37°45' E 024°51'719.5
2018-Feb-20 13:24N 37°40' E 024°57'819.5
2018-Feb-20 13:00N 37°35' E 025°04'5 9.7
2018-Feb-20 12:28N 37°32' E 025°09'612.9
2018-Feb-20 12:01N 37°29' E 025°16'3 6.6
2018-Feb-20 11:30N 37°28' E 025°20'0 0.0
2018-Feb-20 11:00N 37°28' E 025°20'0 0.0
2018-Feb-20 10:30N 37°28' E 025°20'510.3
2018-Feb-20 10:01N 37°29' E 025°13'510.4
2018-Feb-20 09:30N 37°32' E 025°08'5516.8
2018-Feb-20 06:15N 37°59' E 024°08'519.1
2018-Feb-20 06:00N 38°01' E 024°02'1 0.1
2018-Feb-19 21:27N 38°01' E 024°01'6 1.5
2018-Feb-19 17:37N 37°59' E 024°08'219.5
2018-Feb-19 17:30N 38°00' E 024°05'4 3.6
2018-Feb-19 16:30N 38°01' E 024°01'4415.0
2018-Feb-19 13:33N 37°44' E 024°52'419.6
2018-Feb-19 13:21N 37°41' E 024°56'719.7
2018-Feb-19 13:00N 37°36' E 025°02'714.3
2018-Feb-19 12:30N 37°32' E 025°09'510.5
2018-Feb-19 12:00N 37°29' E 025°15'4 8.2
2018-Feb-19 11:30N 37°28' E 025°20'0 0.0
2018-Feb-19 11:00N 37°28' E 025°20'0 0.0
2018-Feb-19 10:30N 37°28' E 025°20'4 8.6
2018-Feb-19 10:00N 37°29' E 025°15'610.9
2018-Feb-19 09:30N 37°32' E 025°08'5516.8
2018-Feb-19 06:13N 37°59' E 024°08'419.2
2018-Feb-19 06:00N 38°01' E 024°03'2 0.1
2018-Feb-18 16:28N 38°01' E 024°01'4315.1
2018-Feb-18 13:38N 37°45' E 024°51'319.9
2018-Feb-18 13:29N 37°43' E 024°53'919.6
2018-Feb-18 13:00N 37°36' E 025°02'714.0
2018-Feb-18 12:30N 37°32' E 025°09'714.0
2018-Feb-18 12:00N 37°29' E 025°17'2 4.6
2018-Feb-18 11:31N 37°28' E 025°19'0 0.0
2018-Feb-18 11:00N 37°28' E 025°19'0 0.0
2018-Feb-18 10:31N 37°28' E 025°19'510.6
2018-Feb-18 10:01N 37°30' E 025°13'510.1
2018-Feb-18 09:30N 37°32' E 025°08'5416.6
2018-Feb-18 06:15N 37°60' E 024°08'519.0
2018-Feb-18 06:01N 38°01' E 024°03'0 0.0
2018-Feb-17 16:21N 38°01' E 024°03'4116.2
2018-Feb-17 13:48N 37°45' E 024°51'619.3
2018-Feb-17 13:28N 37°40' E 024°56'918.9
2018-Feb-17 13:00N 37°34' E 025°04'5 9.5
2018-Feb-17 12:30N 37°32' E 025°09'714.9
2018-Feb-17 12:01N 37°28' E 025°17'2 3.7
2018-Feb-17 11:30N 37°28' E 025°19'0 0.0
2018-Feb-17 11:00N 37°28' E 025°19'4 7.2
2018-Feb-17 10:30N 37°29' E 025°15'611.5
2018-Feb-17 10:00N 37°32' E 025°09'714.9
2018-Feb-17 09:31N 37°36' E 025°02'4815.5
2018-Feb-17 06:23N 37°60' E 024°08'6 0.6
2018-Feb-16 21:01N 38°01' E 024°01'0 1.5
2018-Feb-16 21:01N 38°01' E 024°01'6 1.6
2018-Feb-16 17:03N 37°60' E 024°08'119.4
2018-Feb-16 17:00N 37°60' E 024°08'6 5.0
2018-Feb-16 15:53N 38°01' E 024°01'411.1
2018-Feb-16 15:30N 38°01' E 024°06'3915.5
2018-Feb-16 13:01N 37°45' E 024°51'019.4
2018-Feb-16 13:00N 37°45' E 024°51'1019.6
2018-Feb-16 12:30N 37°38' E 024°59'919.0
2018-Feb-16 12:00N 37°32' E 025°09'4 8.1
2018-Feb-16 11:30N 37°30' E 025°13'611.1
2018-Feb-16 11:00N 37°28' E 025°20'1 2.2
2018-Feb-16 10:30N 37°28' E 025°18'816.4
2018-Feb-16 10:00N 37°32' E 025°09'611.5
2018-Feb-16 09:30N 37°35' E 025°03'5015.9
2018-Feb-16 06:21N 37°60' E 024°08'6 0.4
2018-Feb-15 16:41N 38°01' E 024°01'415.6
2018-Feb-15 16:25N 38°00' E 024°06'4415.5
2018-Feb-15 13:32N 37°40' E 024°56'119.3
2018-Feb-15 13:30N 37°40' E 024°57'1019.4
2018-Feb-15 13:00N 37°33' E 025°06'3 5.7
2018-Feb-15 12:30N 37°32' E 025°09'714.3
2018-Feb-15 12:00N 37°29' E 025°17'2 4.1
2018-Feb-15 11:30N 37°28' E 025°19'0 0.0
2018-Feb-15 11:00N 37°28' E 025°19'0 0.1
2018-Feb-15 10:30N 37°28' E 025°19'816.6
2018-Feb-15 10:00N 37°31' E 025°10'4 7.5
2018-Feb-15 09:30N 37°33' E 025°06'16 0.8
2018-Feb-14 13:53N 37°44' E 024°51'719.0
2018-Feb-14 13:30N 37°39' E 024°57'918.8
2018-Feb-14 13:00N 37°33' E 025°06'3 5.7
2018-Feb-14 12:31N 37°32' E 025°10'815.9
2018-Feb-14 12:00N 37°28' E 025°18'1 1.8
2018-Feb-14 11:30N 37°28' E 025°19'0 0.0
2018-Feb-14 11:00N 37°28' E 025°19'1 1.3
2018-Feb-14 10:31N 37°28' E 025°19'816.7
2018-Feb-14 10:00N 37°32' E 025°09'4 8.6
2018-Feb-14 09:30N 37°34' E 025°05'5115.8
2018-Feb-14 06:17N 37°60' E 024°09'519.3
2018-Feb-14 06:00N 38°01' E 024°02'1 0.1
2018-Feb-13 16:33N 38°01' E 024°01'0 4.9
2018-Feb-13 16:28N 38°01' E 024°01'4915.8
2018-Feb-13 13:20N 37°40' E 024°57'619.3
2018-Feb-13 13:00N 37°35' E 025°03'611.1
2018-Feb-13 12:29N 37°32' E 025°09'613.4
2018-Feb-13 12:01N 37°29' E 025°16'3 5.2
2018-Feb-13 11:28N 37°28' E 025°20'0 0.0
2018-Feb-13 10:58N 37°28' E 025°20'0 0.0
2018-Feb-13 10:29N 37°28' E 025°20'815.9
2018-Feb-13 10:00N 37°31' E 025°11'510.6
2018-Feb-13 09:30N 37°34' E 025°05'5215.9
2018-Feb-13 06:14N 37°59' E 024°08'519.3
2018-Feb-13 06:00N 38°01' E 024°03'1 0.1
2018-Feb-12 16:28N 38°01' E 024°01'4315.1
2018-Feb-12 13:37N 37°44' E 024°51'719.3
2018-Feb-12 13:14N 37°39' E 024°58'419.2
2018-Feb-12 13:00N 37°36' E 025°02'714.4
2018-Feb-12 12:30N 37°32' E 025°09'612.0
2018-Feb-12 12:01N 37°29' E 025°16'3 6.6
2018-Feb-12 11:31N 37°28' E 025°20'0 0.0
2018-Feb-12 11:00N 37°28' E 025°20'0 0.0
2018-Feb-12 10:30N 37°28' E 025°20'714.3
2018-Feb-12 10:00N 37°31' E 025°11'510.6
2018-Feb-12 09:30N 37°34' E 025°06'5216.1
2018-Feb-12 06:15N 37°60' E 024°08'519.6
2018-Feb-12 06:00N 38°01' E 024°02'1 0.1
2018-Feb-11 16:46N 38°01' E 024°01'4315.5
2018-Feb-11 14:00N 37°45' E 024°51'1019.6
2018-Feb-11 13:30N 37°38' E 024°59'918.9
2018-Feb-11 13:01N 37°32' E 025°09'2 4.5
2018-Feb-11 12:30N 37°31' E 025°11'714.1
2018-Feb-11 12:00N 37°28' E 025°19'0 0.1
2018-Feb-11 11:29N 37°28' E 025°19'0 0.9
2018-Feb-11 11:00N 37°28' E 025°19'1 1.8
2018-Feb-11 10:30N 37°28' E 025°18'815.6
2018-Feb-11 10:01N 37°32' E 025°10'510.0
2018-Feb-11 09:30N 37°34' E 025°04'5115.9
2018-Feb-11 06:19N 37°59' E 024°08'  
Track history (hours):
 
Tides and Currents Weather Stations Pressure Air Temp Water Temp Dewpoint Dewpoint Depression Visibility Wind Speed Wind Dir Waves Ship Positions

Superferry II

Last reported at 2018-Feb-20 17:00 UTC. Time now 2018-Feb-20 21:50 UTC.
Position N 38°01' E 024°01'.

Length 122 m; draft 4.7 m.

Type: Passenger vessel. MMSI: 237001000.

Date/timePositionNaut miles runAvg speedWind from/ knotsBaromVisibWave heightAir tempDewpointWater temp
2018-Feb-20 17:00N 38°01' E 024°01'4313.2
2018-Feb-20 13:44N 37°45' E 024°51'719.5
2018-Feb-20 13:24N 37°40' E 024°57'819.5
2018-Feb-20 13:00N 37°35' E 025°04'5 9.7
2018-Feb-20 12:28N 37°32' E 025°09'612.9
2018-Feb-20 12:01N 37°29' E 025°16'3 6.6
2018-Feb-20 11:30N 37°28' E 025°20'0 0.0
2018-Feb-20 11:00N 37°28' E 025°20'0 0.0
2018-Feb-20 10:30N 37°28' E 025°20'510.3
2018-Feb-20 10:01N 37°29' E 025°13'510.4
2018-Feb-20 09:30N 37°32' E 025°08'5516.8
2018-Feb-20 06:15N 37°59' E 024°08'519.1
2018-Feb-20 06:00N 38°01' E 024°02'1 0.1
2018-Feb-19 21:27N 38°01' E 024°01'6 1.5
2018-Feb-19 17:37N 37°59' E 024°08'219.5
2018-Feb-19 17:30N 38°00' E 024°05'4 3.6
2018-Feb-19 16:30N 38°01' E 024°01'4415.0
2018-Feb-19 13:33N 37°44' E 024°52'419.6
2018-Feb-19 13:21N 37°41' E 024°56'719.7
2018-Feb-19 13:00N 37°36' E 025°02'714.3
2018-Feb-19 12:30N 37°32' E 025°09'510.5
2018-Feb-19 12:00N 37°29' E 025°15'4 8.2
2018-Feb-19 11:30N 37°28' E 025°20'0 0.0
2018-Feb-19 11:00N 37°28' E 025°20'0 0.0
2018-Feb-19 10:30N 37°28' E 025°20'4 8.6
2018-Feb-19 10:00N 37°29' E 025°15'610.9
2018-Feb-19 09:30N 37°32' E 025°08'5516.8
2018-Feb-19 06:13N 37°59' E 024°08'419.2
2018-Feb-19 06:00N 38°01' E 024°03'2 0.1
2018-Feb-18 16:28N 38°01' E 024°01'4315.1
2018-Feb-18 13:38N 37°45' E 024°51'319.9
2018-Feb-18 13:29N 37°43' E 024°53'919.6
2018-Feb-18 13:00N 37°36' E 025°02'714.0
2018-Feb-18 12:30N 37°32' E 025°09'714.0
2018-Feb-18 12:00N 37°29' E 025°17'2 4.6
2018-Feb-18 11:31N 37°28' E 025°19'0 0.0
2018-Feb-18 11:00N 37°28' E 025°19'0 0.0
2018-Feb-18 10:31N 37°28' E 025°19'510.6
2018-Feb-18 10:01N 37°30' E 025°13'510.1
2018-Feb-18 09:30N 37°32' E 025°08'5416.6
2018-Feb-18 06:15N 37°60' E 024°08'519.0
2018-Feb-18 06:01N 38°01' E 024°03'0 0.0
2018-Feb-17 16:21N 38°01' E 024°03'4116.2
2018-Feb-17 13:48N 37°45' E 024°51'619.3
2018-Feb-17 13:28N 37°40' E 024°56'918.9
2018-Feb-17 13:00N 37°34' E 025°04'5 9.5
2018-Feb-17 12:30N 37°32' E 025°09'714.9
2018-Feb-17 12:01N 37°28' E 025°17'2 3.7
2018-Feb-17 11:30N 37°28' E 025°19'0 0.0
2018-Feb-17 11:00N 37°28' E 025°19'4 7.2
2018-Feb-17 10:30N 37°29' E 025°15'611.5
2018-Feb-17 10:00N 37°32' E 025°09'714.9
2018-Feb-17 09:31N 37°36' E 025°02'4815.5
2018-Feb-17 06:23N 37°60' E 024°08'6 0.6
2018-Feb-16 21:01N 38°01' E 024°01'0 1.5
2018-Feb-16 21:01N 38°01' E 024°01'6 1.6
2018-Feb-16 17:03N 37°60' E 024°08'119.4
2018-Feb-16 17:00N 37°60' E 024°08'6 5.0
2018-Feb-16 15:53N 38°01' E 024°01'411.1
2018-Feb-16 15:30N 38°01' E 024°06'3915.5
2018-Feb-16 13:01N 37°45' E 024°51'019.4
2018-Feb-16 13:00N 37°45' E 024°51'1019.6
2018-Feb-16 12:30N 37°38' E 024°59'919.0
2018-Feb-16 12:00N 37°32' E 025°09'4 8.1
2018-Feb-16 11:30N 37°30' E 025°13'611.1
2018-Feb-16 11:00N 37°28' E 025°20'1 2.2
2018-Feb-16 10:30N 37°28' E 025°18'816.4
2018-Feb-16 10:00N 37°32' E 025°09'611.5
2018-Feb-16 09:30N 37°35' E 025°03'5015.9
2018-Feb-16 06:21N 37°60' E 024°08'6 0.4
2018-Feb-15 16:41N 38°01' E 024°01'415.6
2018-Feb-15 16:25N 38°00' E 024°06'4415.5
2018-Feb-15 13:32N 37°40' E 024°56'119.3
2018-Feb-15 13:30N 37°40' E 024°57'1019.4
2018-Feb-15 13:00N 37°33' E 025°06'3 5.7
2018-Feb-15 12:30N 37°32' E 025°09'714.3
2018-Feb-15 12:00N 37°29' E 025°17'2 4.1
2018-Feb-15 11:30N 37°28' E 025°19'0 0.0
2018-Feb-15 11:00N 37°28' E 025°19'0 0.1
2018-Feb-15 10:30N 37°28' E 025°19'816.6
2018-Feb-15 10:00N 37°31' E 025°10'4 7.5
2018-Feb-15 09:30N 37°33' E 025°06'16 0.8
2018-Feb-14 13:53N 37°44' E 024°51'719.0
2018-Feb-14 13:30N 37°39' E 024°57'918.8
2018-Feb-14 13:00N 37°33' E 025°06'3 5.7
2018-Feb-14 12:31N 37°32' E 025°10'815.9
2018-Feb-14 12:00N 37°28' E 025°18'1 1.8
2018-Feb-14 11:30N 37°28' E 025°19'0 0.0
2018-Feb-14 11:00N 37°28' E 025°19'1 1.3
2018-Feb-14 10:31N 37°28' E 025°19'816.7
2018-Feb-14 10:00N 37°32' E 025°09'4 8.6
2018-Feb-14 09:30N 37°34' E 025°05'5115.8
2018-Feb-14 06:17N 37°60' E 024°09'519.3
2018-Feb-14 06:00N 38°01' E 024°02'1 0.1
2018-Feb-13 16:33N 38°01' E 024°01'0 4.9
2018-Feb-13 16:28N 38°01' E 024°01'4915.8
2018-Feb-13 13:20N 37°40' E 024°57'619.3
2018-Feb-13 13:00N 37°35' E 025°03'611.1
2018-Feb-13 12:29N 37°32' E 025°09'613.4
2018-Feb-13 12:01N 37°29' E 025°16'3 5.2
2018-Feb-13 11:28N 37°28' E 025°20'0 0.0
2018-Feb-13 10:58N 37°28' E 025°20'0 0.0
2018-Feb-13 10:29N 37°28' E 025°20'815.9
2018-Feb-13 10:00N 37°31' E 025°11'510.6
2018-Feb-13 09:30N 37°34' E 025°05'5215.9
2018-Feb-13 06:14N 37°59' E 024°08'519.3
2018-Feb-13 06:00N 38°01' E 024°03'1 0.1
2018-Feb-12 16:28N 38°01' E 024°01'4315.1
2018-Feb-12 13:37N 37°44' E 024°51'719.3
2018-Feb-12 13:14N 37°39' E 024°58'419.2
2018-Feb-12 13:00N 37°36' E 025°02'714.4
2018-Feb-12 12:30N 37°32' E 025°09'612.0
2018-Feb-12 12:01N 37°29' E 025°16'3 6.6
2018-Feb-12 11:31N 37°28' E 025°20'0 0.0
2018-Feb-12 11:00N 37°28' E 025°20'0 0.0
2018-Feb-12 10:30N 37°28' E 025°20'714.3
2018-Feb-12 10:00N 37°31' E 025°11'510.6
2018-Feb-12 09:30N 37°34' E 025°06'5216.1
2018-Feb-12 06:15N 37°60' E 024°08'519.6
2018-Feb-12 06:00N 38°01' E 024°02'1 0.1
2018-Feb-11 16:46N 38°01' E 024°01'4315.5
2018-Feb-11 14:00N 37°45' E 024°51'1019.6
2018-Feb-11 13:30N 37°38' E 024°59'918.9
2018-Feb-11 13:01N 37°32' E 025°09'2 4.5
2018-Feb-11 12:30N 37°31' E 025°11'714.1
2018-Feb-11 12:00N 37°28' E 025°19'0 0.1
2018-Feb-11 11:29N 37°28' E 025°19'0 0.9
2018-Feb-11 11:00N 37°28' E 025°19'1 1.8
2018-Feb-11 10:30N 37°28' E 025°18'815.6
2018-Feb-11 10:01N 37°32' E 025°10'510.0
2018-Feb-11 09:30N 37°34' E 025°04'5115.9
2018-Feb-11 06:19N 37°59' E 024°08'  

Dump ship's entire track history